# Tabular Observed and Forecast Hydrograph Information
#
# Location: Tuolumne River - Modesto (MDSC1)
#
# File Generation Time: 05/07/2026 at 07:29 AM PDT
# Data Interval: 1 Hour
#
# Most Recent Date & Time of Maximum Observed: 05/02/2026 at 07:00 AM PDT
# Maximum Observed Stage: 38.03 Feet
# Maximum Observed Flow: 525 cfs
#
# Earliest Date & Time of Maximum Forecast: 05/07/2026 at 08:00 AM PDT
# Maximum Forecast Stage: 37.16 Feet
# Maximum Forecast Flow: 272 cfs
#
# OBSERVED
#
# Date & Time (Local) Stage (Feet) Flow (cfs) Trend Observed Status
# ---------------------------------------------------------------------------------
05/02/2026 07 AM PDT 38.03 525 Normal
05/02/2026 08 AM PDT 38.02 522 - Normal
05/02/2026 09 AM PDT 38.00 515 - Normal
05/02/2026 10 AM PDT 37.99 512 - Normal
05/02/2026 11 AM PDT 37.99 512 0 Normal
05/02/2026 12 PM PDT 37.97 506 - Normal
05/02/2026 01 PM PDT 37.96 503 - Normal
05/02/2026 02 PM PDT 37.95 500 - Normal
05/02/2026 03 PM PDT 37.95 500 0 Normal
05/02/2026 04 PM PDT 37.94 497 - Normal
05/02/2026 05 PM PDT 37.94 497 0 Normal
05/02/2026 06 PM PDT 37.93 493 - Normal
05/02/2026 07 PM PDT 37.92 490 - Normal
05/02/2026 08 PM PDT 37.91 487 - Normal
05/02/2026 09 PM PDT 37.90 484 - Normal
05/02/2026 10 PM PDT 37.89 481 - Normal
05/02/2026 11 PM PDT 37.88 478 - Normal
05/03/2026 12 AM PDT 37.87 475 - Normal
05/03/2026 01 AM PDT 37.86 472 - Normal
05/03/2026 02 AM PDT 37.85 469 - Normal
05/03/2026 03 AM PDT 37.84 466 - Normal
05/03/2026 04 AM PDT 37.82 460 - Normal
05/03/2026 05 AM PDT 37.82 460 0 Normal
05/03/2026 06 AM PDT 37.80 454 - Normal
05/03/2026 07 AM PDT 37.80 454 0 Normal
05/03/2026 08 AM PDT 37.80 454 0 Normal
05/03/2026 09 AM PDT 37.81 457 + Normal
05/03/2026 10 AM PDT 37.82 460 + Normal
05/03/2026 11 AM PDT 37.82 460 0 Normal
05/03/2026 12 PM PDT 37.82 460 0 Normal
05/03/2026 01 PM PDT 37.82 460 0 Normal
05/03/2026 02 PM PDT 37.81 457 - Normal
05/03/2026 03 PM PDT 37.80 454 - Normal
05/03/2026 04 PM PDT 37.79 451 - Normal
05/03/2026 05 PM PDT 37.78 448 - Normal
05/03/2026 06 PM PDT 37.78 448 0 Normal
05/03/2026 07 PM PDT 37.77 444 - Normal
05/03/2026 08 PM PDT 37.77 444 0 Normal
05/03/2026 09 PM PDT 37.76 441 - Normal
05/03/2026 10 PM PDT 37.75 438 - Normal
05/03/2026 11 PM PDT 37.73 432 - Normal
05/04/2026 12 AM PDT 37.71 427 - Normal
05/04/2026 01 AM PDT 37.70 424 - Normal
05/04/2026 02 AM PDT 37.69 421 - Normal
05/04/2026 03 AM PDT 37.68 418 - Normal
05/04/2026 04 AM PDT 37.67 415 - Normal
05/04/2026 05 AM PDT 37.66 412 - Normal
05/04/2026 06 AM PDT 37.64 406 - Normal
05/04/2026 07 AM PDT 37.64 406 0 Normal
05/04/2026 08 AM PDT 37.63 403 - Normal
05/04/2026 09 AM PDT 37.62 400 - Normal
05/04/2026 10 AM PDT 37.62 400 0 Normal
05/04/2026 11 AM PDT 37.62 400 0 Normal
05/04/2026 12 PM PDT 37.62 400 0 Normal
05/04/2026 01 PM PDT 37.62 400 0 Normal
05/04/2026 02 PM PDT 37.63 403 + Normal
05/04/2026 03 PM PDT 37.63 403 0 Normal
05/04/2026 04 PM PDT 37.63 403 0 Normal
05/04/2026 05 PM PDT 37.63 403 0 Normal
05/04/2026 06 PM PDT 37.64 406 + Normal
05/04/2026 07 PM PDT 37.63 403 - Normal
05/04/2026 08 PM PDT 37.64 406 + Normal
05/04/2026 09 PM PDT 37.62 400 - Normal
05/04/2026 10 PM PDT 37.62 400 0 Normal
05/04/2026 11 PM PDT 37.61 397 - Normal
05/05/2026 12 AM PDT 37.59 391 - Normal
05/05/2026 01 AM PDT 37.57 385 - Normal
05/05/2026 02 AM PDT 37.55 380 - Normal
05/05/2026 03 AM PDT 37.55 380 0 Normal
05/05/2026 04 AM PDT 37.53 374 - Normal
05/05/2026 05 AM PDT 37.52 371 - Normal
05/05/2026 06 AM PDT 37.51 368 - Normal
05/05/2026 07 AM PDT 37.50 365 - Normal
05/05/2026 08 AM PDT 37.49 362 - Normal
05/05/2026 09 AM PDT 37.49 362 0 Normal
05/05/2026 10 AM PDT 37.48 360 - Normal
05/05/2026 11 AM PDT 37.48 360 0 Normal
05/05/2026 12 PM PDT 37.47 357 - Normal
05/05/2026 01 PM PDT 37.47 357 0 Normal
05/05/2026 02 PM PDT 37.47 357 0 Normal
05/05/2026 03 PM PDT 37.47 357 0 Normal
05/05/2026 04 PM PDT 37.46 354 - Normal
05/05/2026 05 PM PDT 37.46 354 0 Normal
05/05/2026 06 PM PDT 37.44 348 - Normal
05/05/2026 07 PM PDT 37.43 345 - Normal
05/05/2026 08 PM PDT 37.44 348 + Normal
05/05/2026 09 PM PDT 37.43 345 - Normal
05/05/2026 10 PM PDT 37.43 345 0 Normal
05/05/2026 11 PM PDT 37.45 351 + Normal
05/06/2026 12 AM PDT 37.43 345 - Normal
05/06/2026 01 AM PDT 37.41 340 - Normal
05/06/2026 02 AM PDT 37.40 337 - Normal
05/06/2026 03 AM PDT 37.40 337 0 Normal
05/06/2026 04 AM PDT 37.40 337 0 Normal
05/06/2026 05 AM PDT 37.39 334 - Normal
05/06/2026 06 AM PDT 37.37 329 - Normal
05/06/2026 07 AM PDT 37.35 323 - Normal
05/06/2026 08 AM PDT 37.34 321 - Normal
05/06/2026 09 AM PDT 37.32 315 - Normal
05/06/2026 10 AM PDT 37.30 310 - Normal
05/06/2026 11 AM PDT 37.30 310 0 Normal
05/06/2026 12 PM PDT 37.29 307 - Normal
05/06/2026 01 PM PDT 37.28 304 - Normal
05/06/2026 02 PM PDT 37.28 304 0 Normal
05/06/2026 03 PM PDT 37.27 301 - Normal
05/06/2026 04 PM PDT 37.27 301 0 Normal
05/06/2026 05 PM PDT 37.27 301 0 Normal
05/06/2026 06 PM PDT 37.26 299 - Normal
05/06/2026 07 PM PDT 37.26 299 0 Normal
05/06/2026 08 PM PDT 37.25 296 - Normal
05/06/2026 09 PM PDT 37.24 293 - Normal
05/06/2026 10 PM PDT 37.23 291 - Normal
05/06/2026 11 PM PDT 37.23 291 0 Normal
05/07/2026 12 AM PDT 37.23 291 0 Normal
05/07/2026 01 AM PDT 37.22 288 - Normal
05/07/2026 02 AM PDT 37.21 285 - Normal
05/07/2026 03 AM PDT 37.20 283 - Normal
05/07/2026 04 AM PDT 37.19 280 - Normal
05/07/2026 05 AM PDT 37.18 277 - Normal
05/07/2026 06 AM PDT 37.17 275 - Normal
05/07/2026 07 AM PDT 37.16 272 - Normal
#
# FORECAST
#
# Date & Time (Local) Stage (Feet) Flow (cfs) Trend Forecast Status
# ---------------------------------------------------------------------------------
05/07/2026 08 AM PDT 37.16 272 Normal
05/07/2026 09 AM PDT 37.15 270 - Normal
05/07/2026 10 AM PDT 37.14 267 - Normal
05/07/2026 11 AM PDT 37.14 267 0 Normal
05/07/2026 12 PM PDT 37.14 267 0 Normal
05/07/2026 01 PM PDT 37.13 264 - Normal
05/07/2026 02 PM PDT 37.13 264 0 Normal
05/07/2026 03 PM PDT 37.13 264 0 Normal
05/07/2026 04 PM PDT 37.13 264 0 Normal
05/07/2026 05 PM PDT 37.12 262 - Normal
05/07/2026 06 PM PDT 37.12 262 0 Normal
05/07/2026 07 PM PDT 37.12 262 0 Normal
05/07/2026 08 PM PDT 37.11 259 - Normal
05/07/2026 09 PM PDT 37.10 257 - Normal
05/07/2026 10 PM PDT 37.09 254 - Normal
05/07/2026 11 PM PDT 37.09 254 0 Normal
05/08/2026 12 AM PDT 37.08 251 - Normal
05/08/2026 01 AM PDT 37.08 251 0 Normal
05/08/2026 02 AM PDT 37.08 251 0 Normal
05/08/2026 03 AM PDT 37.07 249 - Normal
05/08/2026 04 AM PDT 37.07 249 0 Normal
05/08/2026 05 AM PDT 37.07 249 0 Normal
05/08/2026 06 AM PDT 37.06 246 - Normal
05/08/2026 07 AM PDT 37.06 246 0 Normal
05/08/2026 08 AM PDT 37.06 246 0 Normal
05/08/2026 09 AM PDT 37.06 246 0 Normal
05/08/2026 10 AM PDT 37.06 246 0 Normal
05/08/2026 11 AM PDT 37.06 246 0 Normal
05/08/2026 12 PM PDT 37.05 244 - Normal
05/08/2026 01 PM PDT 37.05 244 0 Normal
05/08/2026 02 PM PDT 37.05 244 0 Normal
05/08/2026 03 PM PDT 37.05 244 0 Normal
05/08/2026 04 PM PDT 37.05 244 0 Normal
05/08/2026 05 PM PDT 37.05 244 0 Normal
05/08/2026 06 PM PDT 37.05 244 0 Normal
05/08/2026 07 PM PDT 37.05 244 0 Normal
05/08/2026 08 PM PDT 37.05 244 0 Normal
05/08/2026 09 PM PDT 37.05 244 0 Normal
05/08/2026 10 PM PDT 37.05 244 0 Normal
05/08/2026 11 PM PDT 37.05 244 0 Normal
05/09/2026 12 AM PDT 37.05 244 0 Normal
05/09/2026 01 AM PDT 37.05 244 0 Normal
05/09/2026 02 AM PDT 37.05 244 0 Normal
05/09/2026 03 AM PDT 37.05 244 0 Normal
05/09/2026 04 AM PDT 37.05 244 0 Normal
05/09/2026 05 AM PDT 37.05 244 0 Normal
05/09/2026 06 AM PDT 37.05 244 0 Normal
05/09/2026 07 AM PDT 37.05 244 0 Normal
05/09/2026 08 AM PDT 37.05 244 0 Normal
05/09/2026 09 AM PDT 37.05 244 0 Normal
05/09/2026 10 AM PDT 37.05 244 0 Normal
05/09/2026 11 AM PDT 37.05 244 0 Normal
05/09/2026 12 PM PDT 37.05 244 0 Normal
05/09/2026 01 PM PDT 37.05 244 0 Normal
05/09/2026 02 PM PDT 37.05 244 0 Normal
05/09/2026 03 PM PDT 37.05 244 0 Normal
05/09/2026 04 PM PDT 37.05 244 0 Normal
05/09/2026 05 PM PDT 37.05 244 0 Normal
05/09/2026 06 PM PDT 37.05 244 0 Normal
05/09/2026 07 PM PDT 37.05 244 0 Normal
05/09/2026 08 PM PDT 37.05 244 0 Normal
05/09/2026 09 PM PDT 37.05 244 0 Normal
05/09/2026 10 PM PDT 37.05 244 0 Normal
05/09/2026 11 PM PDT 37.05 244 0 Normal
05/10/2026 12 AM PDT 37.05 244 0 Normal
05/10/2026 01 AM PDT 37.05 244 0 Normal
05/10/2026 02 AM PDT 37.05 244 0 Normal
05/10/2026 03 AM PDT 37.05 244 0 Normal
05/10/2026 04 AM PDT 37.05 244 0 Normal
05/10/2026 05 AM PDT 37.05 244 0 Normal
05/10/2026 06 AM PDT 37.05 244 0 Normal
05/10/2026 07 AM PDT 37.05 244 0 Normal
05/10/2026 08 AM PDT 37.05 244 0 Normal
05/10/2026 09 AM PDT 37.05 244 0 Normal
05/10/2026 10 AM PDT 37.05 244 0 Normal
05/10/2026 11 AM PDT 37.05 244 0 Normal
05/10/2026 12 PM PDT 37.05 244 0 Normal
05/10/2026 01 PM PDT 37.05 244 0 Normal
05/10/2026 02 PM PDT 37.05 244 0 Normal
05/10/2026 03 PM PDT 37.05 244 0 Normal
05/10/2026 04 PM PDT 37.05 244 0 Normal
05/10/2026 05 PM PDT 37.05 244 0 Normal
05/10/2026 06 PM PDT 37.05 244 0 Normal
05/10/2026 07 PM PDT 37.05 244 0 Normal
05/10/2026 08 PM PDT 37.05 244 0 Normal
05/10/2026 09 PM PDT 37.05 244 0 Normal
05/10/2026 10 PM PDT 37.05 244 0 Normal
05/10/2026 11 PM PDT 37.05 244 0 Normal
05/11/2026 12 AM PDT 37.05 244 0 Normal
05/11/2026 01 AM PDT 37.05 244 0 Normal
05/11/2026 02 AM PDT 37.05 244 0 Normal
05/11/2026 03 AM PDT 37.05 244 0 Normal
05/11/2026 04 AM PDT 37.05 244 0 Normal
05/11/2026 05 AM PDT 37.05 244 0 Normal
05/11/2026 06 AM PDT 37.05 244 0 Normal
05/11/2026 07 AM PDT 37.05 244 0 Normal
05/11/2026 08 AM PDT 37.05 244 0 Normal
05/11/2026 09 AM PDT 37.05 244 0 Normal
05/11/2026 10 AM PDT 37.05 244 0 Normal
05/11/2026 11 AM PDT 37.05 244 0 Normal
05/11/2026 12 PM PDT 37.05 244 0 Normal
05/11/2026 01 PM PDT 37.05 244 0 Normal
05/11/2026 02 PM PDT 37.05 244 0 Normal
05/11/2026 03 PM PDT 37.05 244 0 Normal
05/11/2026 04 PM PDT 37.05 244 0 Normal
05/11/2026 05 PM PDT 37.05 244 0 Normal
05/11/2026 06 PM PDT 37.05 244 0 Normal
05/11/2026 07 PM PDT 37.05 244 0 Normal
05/11/2026 08 PM PDT 37.06 246 + Normal
05/11/2026 09 PM PDT 37.06 246 0 Normal
05/11/2026 10 PM PDT 37.06 246 0 Normal
05/11/2026 11 PM PDT 37.06 246 0 Normal
05/12/2026 12 AM PDT 37.06 246 0 Normal
05/12/2026 01 AM PDT 37.06 246 0 Normal
05/12/2026 02 AM PDT 37.06 246 0 Normal
05/12/2026 03 AM PDT 37.06 246 0 Normal
05/12/2026 04 AM PDT 37.06 246 0 Normal
05/12/2026 05 AM PDT 37.06 246 0 Normal
#
# NOTE 1: Stages are rounded to the nearest hundredth (.01) of a foot.
# NOTE 2: Flows are rounded to the nearest (1) cfs.
# NOTE 3: Trends are determined using hourly change in unrounded stage and flow.
# NOTE 4: Maximum Values are determined using unrounded stage and flow.
|